Time;durP1;ratioP1;P1;durP2;ratioP2;P2;SDS_P1;SDS_P2;PMS_P1;PMS_P2;Temp;Humidity;BMP_temperature;BMP_pressure;BME280_temperature;BME280_humidity;BME280_pressure;Samples;Min_cycle;Max_cycle;Signal;HPM_P1;HPM_P2
2023/04/24 00:00:26;;;;;;;2.13;0.90;;;10.00;99.90;;;;;;5054290;28;20045;-72
2023/04/24 00:02:51;;;;;;;2.20;1.05;;;10.00;99.90;;;;;;5051873;28;20508;-71
2023/04/24 00:05:17;;;;;;;2.25;1.10;;;10.00;99.90;;;;;;5035821;28;20084;-73
2023/04/24 00:07:44;;;;;;;3.65;1.58;;;10.00;99.90;;;;;;5056001;28;20044;-72
2023/04/24 00:10:11;;;;;;;2.70;1.40;;;10.00;99.90;;;;;;5057691;28;20053;-73
2023/04/24 00:12:38;;;;;;;4.10;1.67;;;10.00;99.90;;;;;;5057367;28;20140;-72
2023/04/24 00:15:04;;;;;;;3.97;1.80;;;10.00;99.90;;;;;;5058467;28;20405;-72
2023/04/24 00:17:30;;;;;;;3.63;1.92;;;10.00;99.90;;;;;;5058898;28;20048;-72
2023/04/24 00:19:58;;;;;;;6.30;2.10;;;10.00;99.90;;;;;;5042950;28;20045;-72
2023/04/24 00:22:28;;;;;;;4.40;2.00;;;10.10;99.90;;;;;;5056059;28;20556;-72
2023/04/24 00:24:54;;;;;;;4.25;2.20;;;10.10;99.90;;;;;;5039613;28;20045;-71
2023/04/24 00:27:20;;;;;;;5.53;3.10;;;10.10;99.90;;;;;;5056418;28;20036;-73
2023/04/24 00:29:46;;;;;;;6.63;3.25;;;10.10;99.90;;;;;;5055566;28;20049;-73
2023/04/24 00:32:12;;;;;;;6.65;2.85;;;10.10;99.90;;;;;;5039393;28;20056;-72
2023/04/24 00:34:38;;;;;;;5.68;2.45;;;10.10;99.90;;;;;;5072170;28;20059;-73
2023/04/24 00:37:03;;;;;;;5.82;3.00;;;10.10;99.90;;;;;;5038988;28;20107;-73
2023/04/24 00:39:29;;;;;;;5.95;3.05;;;10.10;99.90;;;;;;5055397;28;20083;-72
2023/04/24 00:41:56;;;;;;;6.25;3.30;;;10.10;99.90;;;;;;5056408;28;20045;-73
2023/04/24 00:44:22;;;;;;;6.68;3.45;;;10.10;99.90;;;;;;5056432;28;20053;-72
2023/04/24 00:46:51;;;;;;;6.07;2.95;;;10.10;99.90;;;;;;5056369;28;20330;-72
2023/04/24 00:49:21;;;;;;;5.60;2.90;;;10.10;99.90;;;;;;5055388;28;20084;-73
2023/04/24 00:51:49;;;;;;;5.00;2.17;;;10.20;99.90;;;;;;5056496;28;20155;-76
2023/04/24 00:54:15;;;;;;;4.35;2.00;;;10.20;99.90;;;;;;5056795;28;20049;-73
2023/04/24 00:56:42;;;;;;;3.08;1.48;;;10.20;99.90;;;;;;5055169;28;20045;-75
2023/04/24 00:59:08;;;;;;;2.70;1.20;;;10.30;99.90;;;;;;5055488;28;20053;-71
2023/04/24 01:01:34;;;;;;;2.57;1.20;;;10.30;99.90;;;;;;5056169;28;20099;-72
2023/04/24 01:04:00;;;;;;;2.70;1.42;;;10.20;99.90;;;;;;5054791;28;20286;-73
2023/04/24 01:06:28;;;;;;;3.63;1.50;;;10.10;99.90;;;;;;5055383;28;20048;-71
2023/04/24 01:08:55;;;;;;;2.72;1.38;;;10.10;99.90;;;;;;5054867;28;20041;-73
2023/04/24 01:11:25;;;;;;;4.13;1.65;;;10.20;99.90;;;;;;5038992;28;20053;-74
2023/04/24 01:13:51;;;;;;;3.35;1.75;;;10.10;99.90;;;;;;5054598;28;20103;-73
2023/04/24 01:16:19;;;;;;;2.80;1.48;;;10.00;99.90;;;;;;5055797;28;20080;-75
2023/04/24 01:18:45;;;;;;;4.65;1.98;;;10.00;99.90;;;;;;5053710;28;20059;-73
2023/04/24 01:21:14;;;;;;;3.80;1.90;;;10.00;99.90;;;;;;5055717;28;20129;-72
2023/04/24 01:23:40;;;;;;;3.90;2.13;;;9.90;99.90;;;;;;5055670;28;20095;-73
2023/04/24 01:26:06;;;;;;;4.20;2.20;;;9.90;99.90;;;;;;5038148;28;20044;-76
2023/04/24 01:28:32;;;;;;;3.85;2.40;;;9.90;99.90;;;;;;5054406;28;20053;-75
2023/04/24 01:30:59;;;;;;;4.38;2.83;;;9.90;99.90;;;;;;5054873;28;20048;-75
2023/04/24 01:33:25;;;;;;;3.85;2.42;;;9.80;99.90;;;;;;5055505;28;20041;-74
2023/04/24 01:35:52;;;;;;;4.73;2.30;;;9.80;99.90;;;;;;5055679;28;20146;-73
2023/04/24 01:38:17;;;;;;;4.05;2.40;;;9.70;99.90;;;;;;5055500;28;20287;-75
2023/04/24 01:40:43;;;;;;;4.32;2.65;;;9.70;99.90;;;;;;5070919;28;20051;-73
2023/04/24 01:43:09;;;;;;;5.38;2.78;;;9.70;99.90;;;;;;5056101;28;20041;-74
2023/04/24 01:45:35;;;;;;;6.20;3.20;;;9.60;99.90;;;;;;5054070;28;20127;-75
2023/04/24 01:48:01;;;;;;;7.45;3.17;;;9.70;99.90;;;;;;5053573;28;20179;-74
2023/04/24 01:50:27;;;;;;;7.50;3.47;;;9.70;99.90;;;;;;5054000;28;20056;-73
2023/04/24 01:52:52;;;;;;;4.88;3.15;;;9.60;99.90;;;;;;5020653;28;20049;-74
2023/04/24 01:55:18;;;;;;;6.03;3.33;;;9.60;99.90;;;;;;5054989;28;20128;-73
2023/04/24 01:57:44;;;;;;;7.43;3.33;;;9.60;99.90;;;;;;5055339;28;20037;-73
2023/04/24 02:00:11;;;;;;;6.88;4.05;;;9.60;99.90;;;;;;5054671;28;20049;-71
2023/04/24 02:02:38;;;;;;;6.25;3.88;;;9.50;99.90;;;;;;5020953;28;20050;-73
2023/04/24 02:05:07;;;;;;;6.30;3.63;;;9.50;99.90;;;;;;5054904;28;20045;-72
2023/04/24 02:07:32;;;;;;;6.28;3.67;;;9.50;99.90;;;;;;5054693;28;20048;-74
2023/04/24 02:09:58;;;;;;;7.43;4.93;;;9.50;99.90;;;;;;5053751;28;20436;-73
2023/04/24 02:12:24;;;;;;;8.30;4.15;;;9.50;99.90;;;;;;5055413;28;20090;-74
2023/04/24 02:14:50;;;;;;;7.78;4.40;;;9.50;99.90;;;;;;5036994;28;20167;-74
2023/04/24 02:17:18;;;;;;;9.18;4.07;;;9.50;99.90;;;;;;5053632;28;20099;-72
2023/04/24 02:19:45;;;;;;;7.72;4.43;;;9.50;99.90;;;;;;5054365;28;20057;-72
2023/04/24 02:22:11;;;;;;;8.82;4.68;;;9.50;99.90;;;;;;5054252;28;20156;-71
2023/04/24 02:24:37;;;;;;;7.22;4.05;;;9.40;99.90;;;;;;5053447;28;20521;-73
2023/04/24 02:27:03;;;;;;;8.70;4.85;;;9.40;99.90;;;;;;5053227;28;20049;-73
2023/04/24 02:29:29;;;;;;;10.35;5.03;;;9.40;99.90;;;;;;5053288;28;20056;-72
2023/04/24 02:31:55;;;;;;;6.88;4.18;;;9.50;99.90;;;;;;5020288;28;20044;-74
2023/04/24 02:34:20;;;;;;;9.75;4.80;;;9.40;99.90;;;;;;5053280;28;20040;-73
2023/04/24 02:36:46;;;;;;;7.40;4.50;;;9.40;99.90;;;;;;5054239;28;20469;-73
2023/04/24 02:39:13;;;;;;;9.82;4.85;;;9.50;99.90;;;;;;5054149;28;20045;-74
2023/04/24 02:41:39;;;;;;;7.53;4.93;;;9.50;99.90;;;;;;5054148;28;20053;-74
2023/04/24 02:44:04;;;;;;;8.52;5.10;;;9.50;99.90;;;;;;5036688;28;20051;-74
2023/04/24 02:46:30;;;;;;;7.10;4.80;;;9.50;99.90;;;;;;5036342;28;20045;-73
2023/04/24 02:48:56;;;;;;;8.23;5.25;;;9.50;99.90;;;;;;5037234;28;20041;-74
2023/04/24 02:51:21;;;;;;;7.82;4.68;;;9.50;99.90;;;;;;5052807;28;20120;-74
2023/04/24 02:53:47;;;;;;;8.05;4.70;;;9.50;99.90;;;;;;5053925;28;20455;-71
2023/04/24 02:56:13;;;;;;;7.63;4.70;;;9.50;99.90;;;;;;5054108;28;20409;-73
2023/04/24 02:58:39;;;;;;;8.07;5.18;;;9.50;99.90;;;;;;5053027;28;20049;-73
2023/04/24 03:01:05;;;;;;;8.73;5.22;;;9.50;99.90;;;;;;5052522;28;20048;-74
2023/04/24 03:03:31;;;;;;;7.65;5.05;;;9.50;99.90;;;;;;5053762;28;20051;-74
2023/04/24 03:05:57;;;;;;;7.22;4.18;;;9.50;99.90;;;;;;5052667;28;20041;-73
2023/04/24 03:08:23;;;;;;;6.97;4.18;;;9.50;99.90;;;;;;5052974;28;20503;-73
2023/04/24 03:10:49;;;;;;;6.82;4.32;;;9.50;99.90;;;;;;5053101;28;20053;-74
2023/04/24 03:13:16;;;;;;;7.90;4.97;;;9.40;99.90;;;;;;5053450;28;20060;-74
2023/04/24 03:15:42;;;;;;;7.75;4.28;;;9.40;99.90;;;;;;5054490;28;20461;-74
2023/04/24 03:18:07;;;;;;;8.65;4.25;;;9.40;99.90;;;;;;5052036;28;20096;-74
2023/04/24 03:20:33;;;;;;;6.97;3.97;;;9.40;99.90;;;;;;5053279;28;20044;-72
2023/04/24 03:22:59;;;;;;;8.43;4.30;;;9.40;99.90;;;;;;5053418;28;20052;-74
2023/04/24 03:25:25;;;;;;;8.32;4.15;;;9.40;99.90;;;;;;5052376;28;20048;-73
2023/04/24 03:27:51;;;;;;;8.27;4.70;;;9.40;99.90;;;;;;5053243;28;20041;-73
2023/04/24 03:30:17;;;;;;;8.48;4.82;;;9.40;99.90;;;;;;5053314;28;20056;-73
2023/04/24 03:32:43;;;;;;;9.57;5.20;;;9.30;99.90;;;;;;5051614;28;20045;-73
2023/04/24 03:35:08;;;;;;;9.27;4.43;;;9.30;99.90;;;;;;5052049;28;20127;-75
2023/04/24 03:37:34;;;;;;;9.75;5.25;;;9.30;99.90;;;;;;5053989;28;20120;-74
2023/04/24 03:40:01;;;;;;;8.32;4.70;;;9.30;99.90;;;;;;5035715;28;20049;-76
2023/04/24 03:42:27;;;;;;;9.43;4.68;;;9.30;99.90;;;;;;5051860;28;20097;-72
2023/04/24 03:44:52;;;;;;;10.40;5.50;;;9.30;99.90;;;;;;5053219;28;20132;-74
2023/04/24 03:47:18;;;;;;;8.98;5.57;;;9.20;99.90;;;;;;5053207;28;20044;-72
2023/04/24 03:49:44;;;;;;;10.95;6.13;;;9.20;99.90;;;;;;5053003;28;20134;-74
2023/04/24 03:52:10;;;;;;;10.82;6.05;;;9.20;99.90;;;;;;5036420;28;20037;-74
2023/04/24 03:54:35;;;;;;;10.60;5.97;;;9.20;99.90;;;;;;5053118;28;20400;-74
2023/04/24 03:57:01;;;;;;;11.35;5.97;;;9.20;99.90;;;;;;5051726;28;20049;-72
2023/04/24 03:59:27;;;;;;;12.32;5.65;;;9.10;99.90;;;;;;5051885;28;20047;-74
2023/04/24 04:01:52;;;;;;;11.90;5.93;;;9.10;99.90;;;;;;5052115;28;20053;-73
2023/04/24 04:04:18;;;;;;;11.52;5.22;;;9.10;99.90;;;;;;5051445;28;20041;-73
2023/04/24 04:06:44;;;;;;;15.65;5.50;;;9.10;99.90;;;;;;5051676;28;20044;-74
2023/04/24 04:09:10;;;;;;;9.82;5.53;;;9.10;99.90;;;;;;5052968;28;20397;-73
2023/04/24 04:11:36;;;;;;;10.48;5.35;;;9.10;99.90;;;;;;5052800;28;20053;-74
2023/04/24 04:14:02;;;;;;;9.90;5.47;;;9.20;99.90;;;;;;5053257;28;20072;-74
2023/04/24 04:16:28;;;;;;;12.10;5.78;;;9.10;99.90;;;;;;5052852;28;20481;-72
2023/04/24 04:18:53;;;;;;;11.15;5.55;;;9.10;99.90;;;;;;5053106;28;20057;-75
2023/04/24 04:21:20;;;;;;;10.18;5.43;;;9.10;99.90;;;;;;5053711;28;20072;-73
2023/04/24 04:23:45;;;;;;;10.73;6.05;;;9.00;99.90;;;;;;5052738;28;20053;-75
2023/04/24 04:26:12;;;;;;;7.60;3.80;;;9.00;99.90;;;;;;5052732;28;20045;-72
2023/04/24 04:28:39;;;;;;;8.75;4.05;;;9.00;99.90;;;;;;5052571;28;20452;-75
2023/04/24 04:31:07;;;;;;;7.43;3.42;;;9.00;99.90;;;;;;5035078;28;20084;-75
2023/04/24 04:33:33;;;;;;;6.13;3.05;;;8.90;99.90;;;;;;5051591;28;20107;-74
2023/04/24 04:35:59;;;;;;;7.05;3.45;;;8.90;99.90;;;;;;5052962;28;20045;-74
2023/04/24 04:38:29;;;;;;;7.97;2.80;;;8.90;99.90;;;;;;5051490;28;20128;-74
2023/04/24 04:40:58;;;;;;;6.57;3.00;;;8.90;99.90;;;;;;5085739;28;20295;-74
2023/04/24 04:43:25;;;;;;;10.45;3.45;;;8.90;99.90;;;;;;5051486;28;20037;-73
2023/04/24 04:45:51;;;;;;;8.87;3.37;;;8.80;99.90;;;;;;5052664;28;20456;-77
2023/04/24 04:48:18;;;;;;;9.60;4.00;;;8.80;99.90;;;;;;5053287;28;20118;-75
2023/04/24 04:50:44;;;;;;;7.53;3.60;;;8.80;99.90;;;;;;5052517;28;20079;-74
2023/04/24 04:53:10;;;;;;;8.32;3.90;;;8.80;99.90;;;;;;5036321;28;20532;-74
2023/04/24 04:55:36;;;;;;;8.98;3.70;;;8.80;99.90;;;;;;5057162;28;20045;-75
2023/04/24 04:58:02;;;;;;;8.43;3.40;;;8.80;99.90;;;;;;5022760;28;20045;-75
2023/04/24 05:00:33;;;;;;;8.35;3.80;;;8.80;99.90;;;;;;5039479;28;20052;-77
2023/04/24 05:02:59;;;;;;;8.52;4.10;;;8.80;99.90;;;;;;5039371;28;20489;-75
2023/04/24 05:05:25;;;;;;;9.37;4.67;;;8.80;99.90;;;;;;5056266;28;20049;-74
2023/04/24 05:07:51;;;;;;;9.13;4.28;;;8.80;99.90;;;;;;5038102;28;20389;-76
2023/04/24 05:10:17;;;;;;;10.07;4.97;;;8.90;99.90;;;;;;5055042;28;20182;-74
2023/04/24 05:12:43;;;;;;;9.40;4.07;;;8.90;99.90;;;;;;5038414;28;20063;-75
2023/04/24 05:15:09;;;;;;;10.73;4.95;;;8.90;99.90;;;;;;5054776;28;20496;-77
2023/04/24 05:17:35;;;;;;;9.10;4.18;;;8.90;99.90;;;;;;5038267;28;20095;-73
2023/04/24 05:20:01;;;;;;;11.05;4.45;;;8.90;99.90;;;;;;5055787;28;20057;-75
2023/04/24 05:22:27;;;;;;;9.40;4.10;;;8.90;99.90;;;;;;5054555;28;20060;-76
2023/04/24 05:24:53;;;;;;;7.95;3.92;;;8.90;99.90;;;;;;5038118;28;20045;-75
2023/04/24 05:27:19;;;;;;;10.13;4.00;;;8.90;99.90;;;;;;5055908;28;20109;-73
2023/04/24 05:29:45;;;;;;;10.48;3.90;;;8.90;99.90;;;;;;5071335;28;20045;-75
2023/04/24 05:32:10;;;;;;;7.88;3.70;;;8.90;99.90;;;;;;5038348;28;20049;-73
2023/04/24 05:34:36;;;;;;;9.43;3.40;;;8.90;99.90;;;;;;5055455;28;20152;-72
2023/04/24 05:37:03;;;;;;;5.97;2.75;;;8.90;99.90;;;;;;5056220;28;20064;-72
2023/04/24 05:39:28;;;;;;;8.37;2.47;;;8.90;99.90;;;;;;5054522;28;20500;-74
2023/04/24 05:41:57;;;;;;;7.32;2.00;;;8.90;99.90;;;;;;5053943;28;20045;-73
2023/04/24 05:44:23;;;;;;;3.08;0.80;;;9.00;99.90;;;;;;5055309;28;20048;-73
2023/04/24 05:46:49;;;;;;;2.50;0.80;;;9.00;99.90;;;;;;5054070;28;20529;-72
2023/04/24 05:49:14;;;;;;;2.10;0.50;;;9.00;99.90;;;;;;5054064;28;20140;-75
2023/04/24 05:51:41;;;;;;;3.90;0.85;;;9.00;99.90;;;;;;5055017;28;20048;-71
2023/04/24 05:54:06;;;;;;;2.78;0.80;;;9.00;99.90;;;;;;5055180;28;20451;-76
2023/04/24 05:56:32;;;;;;;3.85;0.90;;;9.10;99.90;;;;;;5055049;28;20123;-70
2023/04/24 05:58:58;;;;;;;3.95;1.02;;;9.20;99.90;;;;;;5037133;28;20056;-72
2023/04/24 06:01:24;;;;;;;3.65;1.20;;;9.20;99.90;;;;;;5054909;28;20397;-73
2023/04/24 06:03:50;;;;;;;4.57;1.50;;;9.20;99.90;;;;;;5054765;28;20496;-73
2023/04/24 06:06:16;;;;;;;4.78;1.67;;;9.30;99.90;;;;;;5053574;28;20085;-73
2023/04/24 06:08:43;;;;;;;6.07;2.03;;;9.40;99.90;;;;;;5037253;28;20114;-74
2023/04/24 06:11:09;;;;;;;5.65;2.13;;;9.40;99.90;;;;;;5054079;28;20055;-74
2023/04/24 06:13:35;;;;;;;6.13;1.80;;;9.50;99.90;;;;;;5055002;28;20041;-73
2023/04/24 06:16:01;;;;;;;14.38;3.78;;;9.50;99.90;;;;;;5053732;28;20041;-74
2023/04/24 06:18:27;;;;;;;8.93;3.13;;;9.50;99.90;;;;;;5054779;28;20385;-74
2023/04/24 06:20:52;;;;;;;8.10;3.28;;;9.60;99.90;;;;;;5054861;28;20061;-75
2023/04/24 06:23:18;;;;;;;6.68;2.58;;;9.60;99.90;;;;;;5053735;28;20052;-75
2023/04/24 06:25:44;;;;;;;10.10;2.92;;;9.60;99.90;;;;;;5053556;28;20045;-74
2023/04/24 06:28:10;;;;;;;6.60;2.50;;;9.60;99.90;;;;;;5053998;28;20488;-75
2023/04/24 06:30:35;;;;;;;7.30;2.05;;;9.60;99.90;;;;;;5053680;28;20037;-75
2023/04/24 06:33:01;;;;;;;3.65;1.20;;;9.60;99.90;;;;;;5053617;28;20076;-75
2023/04/24 06:35:27;;;;;;;3.60;1.00;;;9.60;99.90;;;;;;5054609;28;20059;-75
2023/04/24 06:37:53;;;;;;;4.10;1.00;;;9.50;99.90;;;;;;5055075;28;20476;-78
2023/04/24 06:40:18;;;;;;;5.30;1.27;;;9.40;99.90;;;;;;5054407;28;20123;-75
2023/04/24 06:42:44;;;;;;;3.15;0.80;;;9.40;99.90;;;;;;5054384;28;20040;-73
2023/04/24 06:45:11;;;;;;;4.18;1.02;;;9.30;99.90;;;;;;5054384;28;20380;-75
2023/04/24 06:47:37;;;;;;;4.63;1.10;;;9.30;99.90;;;;;;5053265;28;20072;-72
2023/04/24 06:50:03;;;;;;;5.65;1.05;;;9.30;99.90;;;;;;5053843;28;20432;-74
2023/04/24 06:52:32;;;;;;;5.15;1.98;;;9.30;99.90;;;;;;5056139;28;20044;-76
2023/04/24 06:55:02;;;;;;;9.50;2.90;;;9.30;99.90;;;;;;5054214;28;20075;-70
2023/04/24 06:57:29;;;;;;;8.23;3.40;;;9.30;99.90;;;;;;5054041;28;20055;-77
2023/04/24 06:59:55;;;;;;;8.43;2.53;;;9.40;99.90;;;;;;5054875;28;20045;-76
2023/04/24 07:02:21;;;;;;;9.40;2.83;;;9.50;99.90;;;;;;5052831;28;20053;-74
2023/04/24 07:04:47;;;;;;;7.25;2.70;;;9.50;99.90;;;;;;5053700;28;20041;-73
2023/04/24 07:07:14;;;;;;;9.25;3.13;;;9.50;99.90;;;;;;5054251;28;20084;-75
2023/04/24 07:09:42;;;;;;;10.25;3.00;;;9.50;99.90;;;;;;5053877;28;20491;-79
2023/04/24 07:12:12;;;;;;;11.27;2.47;;;9.50;99.90;;;;;;5052703;28;20087;-73
2023/04/24 07:14:38;;;;;;;9.32;2.60;;;9.50;99.90;;;;;;5054550;28;20412;-75
2023/04/24 07:17:04;;;;;;;11.80;2.78;;;9.50;99.90;;;;;;5035250;28;20049;-76
2023/04/24 07:19:29;;;;;;;9.35;2.85;;;9.50;99.90;;;;;;5053501;28;20140;-75
2023/04/24 07:21:55;;;;;;;10.65;3.78;;;9.50;99.90;;;;;;5068944;28;20179;-73
2023/04/24 07:24:21;;;;;;;14.18;3.72;;;9.50;99.90;;;;;;5052793;28;20040;-75
2023/04/24 07:26:47;;;;;;;9.77;3.25;;;9.50;99.90;;;;;;5053132;28;20367;-75
2023/04/24 07:29:13;;;;;;;10.55;3.80;;;9.60;99.90;;;;;;5053944;28;20130;-74
2023/04/24 07:31:40;;;;;;;11.10;4.47;;;9.60;99.90;;;;;;5053251;28;20060;-75
2023/04/24 07:34:06;;;;;;;;;;;9.70;99.90;;;;;;5052675;28;20470;-74
2023/04/24 07:36:32;;;;;;;9.77;3.80;;;9.60;99.90;;;;;;5069884;28;19916;-76
2023/04/24 07:38:58;;;;;;;14.95;4.38;;;9.70;99.90;;;;;;5053331;28;20103;-75
2023/04/24 07:41:24;;;;;;;11.18;4.20;;;9.70;99.90;;;;;;5052228;28;20047;-74
2023/04/24 07:43:50;;;;;;;11.35;3.78;;;9.70;99.90;;;;;;5053149;28;20048;-73
2023/04/24 07:46:15;;;;;;;10.02;3.83;;;9.70;99.90;;;;;;5053945;28;20099;-73
2023/04/24 07:48:41;;;;;;;11.02;3.38;;;9.70;99.90;;;;;;5052272;28;20077;-76
2023/04/24 07:51:09;;;;;;;9.63;3.80;;;9.70;99.90;;;;;;5035847;28;20504;-75
2023/04/24 07:53:35;;;;;;;10.32;3.97;;;9.70;99.90;;;;;;5052382;28;20044;-74
2023/04/24 07:56:01;;;;;;;11.02;3.75;;;9.70;99.90;;;;;;5053334;28;20392;-73
2023/04/24 07:58:27;;;;;;;12.18;4.38;;;9.70;99.90;;;;;;5054030;28;20052;-73
2023/04/24 08:00:52;;;;;;;11.77;4.45;;;9.60;99.90;;;;;;5051948;28;20041;-74
2023/04/24 08:03:19;;;;;;;11.23;3.25;;;9.60;99.90;;;;;;5051846;28;20080;-75
2023/04/24 08:05:45;;;;;;;10.63;3.67;;;9.60;99.90;;;;;;5053605;28;20049;-74
2023/04/24 08:08:11;;;;;;;9.55;3.47;;;9.60;99.90;;;;;;5053082;28;20346;-76
2023/04/24 08:10:37;;;;;;;7.40;2.90;;;9.50;99.90;;;;;;5036281;28;20044;-73
2023/04/24 08:13:03;;;;;;;8.35;2.60;;;9.50;99.90;;;;;;5051800;28;20488;-74
2023/04/24 08:15:28;;;;;;;9.48;2.53;;;9.50;99.90;;;;;;5052244;28;20045;-74
2023/04/24 08:17:54;;;;;;;10.60;3.17;;;9.40;99.90;;;;;;5052938;28;20041;-73
2023/04/24 08:20:20;;;;;;;10.13;3.65;;;9.40;99.90;;;;;;5051826;28;20053;-74
2023/04/24 08:22:47;;;;;;;5.53;2.53;;;9.40;99.90;;;;;;5051814;28;20045;-73
2023/04/24 08:25:13;;;;;;;6.85;2.40;;;9.40;99.90;;;;;;5052933;28;20057;-75
2023/04/24 08:27:39;;;;;;;9.63;3.40;;;9.30;99.90;;;;;;5053359;28;20400;-74
2023/04/24 08:30:05;;;;;;;13.52;3.13;;;9.20;99.90;;;;;;5055806;28;20128;-73
2023/04/24 08:32:31;;;;;;;11.43;4.95;;;9.30;99.90;;;;;;5056857;28;20045;-74
2023/04/24 08:34:57;;;;;;;15.05;4.75;;;9.10;99.90;;;;;;5056283;28;20048;-72
2023/04/24 08:37:23;;;;;;;15.45;6.95;;;9.10;99.90;;;;;;5056284;28;20141;-73
2023/04/24 08:39:50;;;;;;;17.25;7.13;;;9.00;99.90;;;;;;5055417;28;20056;-73
2023/04/24 08:42:17;;;;;;;18.02;6.68;;;8.90;99.90;;;;;;5056566;28;20416;-73
2023/04/24 08:44:44;;;;;;;26.30;9.32;;;9.00;99.90;;;;;;5055553;28;20056;-74
2023/04/24 08:47:11;;;;;;;26.58;8.60;;;8.80;99.90;;;;;;5056260;28;20048;-73
2023/04/24 08:49:37;;;;;;;28.10;11.55;;;8.80;99.90;;;;;;5056365;28;20052;-73
2023/04/24 08:52:05;;;;;;;31.95;10.52;;;8.70;99.90;;;;;;5056340;28;20049;-74
2023/04/24 08:54:31;;;;;;;32.47;11.40;;;8.80;99.90;;;;;;5055897;28;20041;-73
2023/04/24 08:57:03;;;;;;;28.48;11.32;;;8.70;99.90;;;;;;5039377;28;20049;-75
2023/04/24 08:59:31;;;;;;;37.33;12.07;;;8.80;99.90;;;;;;5056144;28;20093;-73
2023/04/24 09:01:58;;;;;;;39.50;13.35;;;8.70;99.90;;;;;;5055005;28;20049;-73
2023/04/24 09:04:24;;;;;;;38.15;14.68;;;8.70;99.90;;;;;;5054796;28;20557;-71
2023/04/24 09:06:58;;;;;;;47.55;16.85;;;8.70;99.90;;;;;;5056035;28;20037;-75
2023/04/24 09:09:25;;;;;;;44.72;16.40;;;8.60;99.90;;;;;;5038408;28;20193;-76
2023/04/24 09:11:53;;;;;;;46.97;15.98;;;8.50;99.90;;;;;;5056432;28;20049;-73
2023/04/24 09:14:20;;;;;;;57.05;23.27;;;8.50;99.90;;;;;;5054810;28;20045;-72
2023/04/24 09:16:47;;;;;;;54.70;23.27;;;8.40;99.90;;;;;;5054834;28;20048;-72
2023/04/24 09:19:12;;;;;;;52.97;20.77;;;8.40;99.90;;;;;;5054308;28;20057;-73
2023/04/24 09:21:38;;;;;;;50.03;22.10;;;8.40;99.90;;;;;;5056254;28;20370;-72
2023/04/24 09:24:07;;;;;;;40.67;15.00;;;8.50;99.90;;;;;;5038604;28;20040;-75
2023/04/24 09:26:36;;;;;;;46.10;15.00;;;8.50;99.90;;;;;;5055978;28;20045;-72
2023/04/24 09:29:03;;;;;;;37.60;13.40;;;8.50;99.90;;;;;;5038429;28;20048;-75
2023/04/24 09:31:30;;;;;;;39.67;14.50;;;8.50;99.90;;;;;;5055805;28;20044;-75
2023/04/24 09:33:58;;;;;;;36.57;13.60;;;8.40;99.90;;;;;;5054666;28;20124;-73
2023/04/24 09:36:38;;;;;;;34.65;13.75;;;8.50;99.90;;;;;;5055735;28;20110;-74
2023/04/24 09:39:15;;;;;;;32.03;13.32;;;8.50;99.90;;;;;;5039054;28;20075;-73
2023/04/24 09:41:47;;;;;;;36.92;13.43;;;8.50;99.90;;;;;;5038747;28;20040;-74
2023/04/24 09:44:16;;;;;;;38.67;12.57;;;8.50;99.90;;;;;;5055461;28;20056;-75
2023/04/24 09:46:45;;;;;;;33.42;14.02;;;8.50;99.90;;;;;;5038433;28;20361;-76
2023/04/24 09:49:15;;;;;;;30.60;13.98;;;8.50;99.90;;;;;;5055075;28;20136;-74
2023/04/24 09:51:41;;;;;;;31.92;12.82;;;8.50;99.90;;;;;;5055236;28;20396;-75
2023/04/24 09:54:21;;;;;;;30.88;11.68;;;8.60;99.90;;;;;;5054073;28;20136;-75
2023/04/24 09:56:49;;;;;;;37.22;12.02;;;8.60;99.90;;;;;;5055943;28;20131;-74
2023/04/24 09:59:18;;;;;;;32.58;12.10;;;8.70;99.90;;;;;;5054080;28;20478;-75
2023/04/24 10:01:45;;;;;;;33.65;12.20;;;8.80;99.90;;;;;;5053861;28;20451;-74
2023/04/24 10:04:20;;;;;;;35.00;10.85;;;8.90;99.90;;;;;;5037999;28;20053;-75
2023/04/24 10:06:48;;;;;;;30.75;11.73;;;9.00;99.90;;;;;;5054955;28;20059;-73
2023/04/24 10:09:15;;;;;;;30.58;9.30;;;9.10;99.90;;;;;;5053756;28;20045;-75
2023/04/24 10:11:43;;;;;;;28.73;10.35;;;9.20;99.90;;;;;;5054568;28;20547;-76
2023/04/24 10:14:12;;;;;;;21.90;8.55;;;9.20;99.90;;;;;;5053856;28;20488;-74
2023/04/24 10:16:40;;;;;;;17.90;8.02;;;9.10;99.90;;;;;;5053557;28;20045;-74
2023/04/24 10:19:06;;;;;;;14.80;7.13;;;9.00;99.90;;;;;;5036856;28;20056;-73
2023/04/24 10:21:33;;;;;;;15.57;7.13;;;9.00;99.90;;;;;;5053925;28;20053;-76
2023/04/24 10:24:03;;;;;;;23.95;6.70;;;8.90;99.90;;;;;;5036787;28;20492;-75
2023/04/24 10:26:29;;;;;;;16.67;5.80;;;8.70;99.90;;;;;;5037595;28;20049;-73
2023/04/24 10:28:58;;;;;;;17.75;5.72;;;8.60;99.90;;;;;;5053493;28;20063;-74
2023/04/24 10:31:25;;;;;;;14.13;4.22;;;8.30;99.90;;;;;;5054896;28;20056;-74
2023/04/24 10:33:53;;;;;;;18.00;4.20;;;8.10;99.90;;;;;;5054381;28;20044;-76
2023/04/24 10:36:22;;;;;;;13.30;3.70;;;7.90;99.90;;;;;;5054469;28;20284;-73
2023/04/24 10:38:49;;;;;;;18.23;4.03;;;7.90;99.90;;;;;;5054224;28;20130;-75
2023/04/24 10:41:19;;;;;;;14.70;3.58;;;7.90;99.90;;;;;;5055204;28;20388;-74
2023/04/24 10:43:48;;;;;;;13.77;3.70;;;7.90;99.90;;;;;;5053447;28;20057;-73
2023/04/24 10:46:20;;;;;;;16.45;3.90;;;7.90;99.90;;;;;;5052830;28;20120;-73
2023/04/24 10:48:56;;;;;;;15.25;4.28;;;7.90;99.90;;;;;;5053881;28;20049;-72
2023/04/24 10:51:23;;;;;;;11.98;2.70;;;7.80;99.90;;;;;;5052315;28;20496;-73
2023/04/24 10:53:51;;;;;;;14.57;3.42;;;7.90;99.90;;;;;;5053662;28;20548;-73
2023/04/24 10:56:18;;;;;;;13.88;3.65;;;8.00;99.90;;;;;;5054586;28;20049;-74
2023/04/24 10:58:52;;;;;;;11.20;3.03;;;8.00;99.90;;;;;;5052713;28;20059;-72
2023/04/24 11:01:38;;;;;;;18.58;3.28;;;8.10;99.90;;;;;;5052826;28;20318;-73
2023/04/24 11:04:04;;;;;;;9.57;2.83;;;8.10;99.90;;;;;;5053628;28;20140;-75
2023/04/24 11:06:35;;;;;;;19.33;4.18;;;8.10;99.90;;;;;;5053257;28;20123;-73
2023/04/24 11:09:09;;;;;;;11.23;2.75;;;8.20;99.90;;;;;;5052600;28;20474;-74
2023/04/24 11:11:37;;;;;;;11.77;2.75;;;8.30;99.90;;;;;;5054255;28;20037;-75
2023/04/24 11:14:06;;;;;;;19.25;2.90;;;8.50;99.90;;;;;;5053994;28;20375;-73
2023/04/24 11:16:37;;;;;;;18.58;3.30;;;8.70;99.90;;;;;;5053686;28;20045;-74
2023/04/24 11:19:18;;;;;;;15.77;2.90;;;8.80;99.90;;;;;;5053433;28;20578;-74
2023/04/24 11:22:01;;;;;;;15.25;2.88;;;9.00;99.90;;;;;;5054329;28;20088;-73
2023/04/24 11:24:31;;;;;;;17.77;2.90;;;9.20;99.90;;;;;;5036341;28;20057;-73
2023/04/24 11:27:07;;;;;;;11.00;2.33;;;9.20;99.90;;;;;;5053545;28;20523;-73
2023/04/24 11:29:43;;;;;;;20.70;2.33;;;9.20;99.90;;;;;;5053480;28;20053;-72
2023/04/24 11:32:32;;;;;;;13.57;2.45;;;9.10;99.90;;;;;;5053422;28;20545;-74
2023/04/24 11:35:24;;;;;;;12.52;2.45;;;9.20;99.90;;;;;;5047952;28;20045;-75
2023/04/24 11:37:53;;;;;;;12.75;1.90;;;9.10;99.90;;;;;;5053583;28;20045;-73
2023/04/24 11:40:22;;;;;;;9.02;1.42;;;8.90;99.90;;;;;;5052815;28;20049;-74
2023/04/24 11:42:50;;;;;;;9.00;2.00;;;8.80;99.90;;;;;;5052799;28;20350;-74
2023/04/24 11:45:23;;;;;;;8.52;1.42;;;8.70;99.90;;;;;;5036102;28;20359;-74
2023/04/24 11:47:48;;;;;;;8.63;1.42;;;8.60;99.90;;;;;;5052036;28;20085;-76
2023/04/24 11:50:17;;;;;;;9.25;1.48;;;8.50;99.90;;;;;;5052068;28;20107;-73
2023/04/24 11:52:45;;;;;;;8.88;1.80;;;8.50;99.90;;;;;;5052093;28;20052;-75
2023/04/24 11:55:14;;;;;;;5.82;1.40;;;8.60;99.90;;;;;;5052197;28;20052;-75
2023/04/24 11:57:44;;;;;;;8.32;1.60;;;8.90;99.90;;;;;;5053223;28;20052;-73
2023/04/24 12:00:16;;;;;;;8.98;1.70;;;9.00;99.90;;;;;;5053857;28;20045;-73
2023/04/24 12:02:42;;;;;;;11.30;1.77;;;9.00;99.90;;;;;;5089928;28;20045;-74
2023/04/24 12:05:08;;;;;;;12.65;1.92;;;9.00;99.90;;;;;;5039845;28;20080;-75
2023/04/24 12:07:44;;;;;;;9.95;1.40;;;8.90;99.90;;;;;;5057004;28;20190;-73
2023/04/24 12:10:10;;;;;;;11.07;1.65;;;8.90;99.90;;;;;;5057173;28;20049;-72
2023/04/24 12:12:36;;;;;;;6.82;1.30;;;8.90;99.90;;;;;;5039799;28;20052;-73
2023/04/24 12:15:07;;;;;;;9.15;1.58;;;9.00;99.90;;;;;;5056743;28;20052;-73
2023/04/24 12:17:34;;;;;;;11.85;1.75;;;9.20;99.90;;;;;;5056997;28;20052;-74
2023/04/24 12:20:05;;;;;;;13.02;1.90;;;9.20;99.90;;;;;;5055823;28;20057;-74
2023/04/24 12:22:53;;;;;;;6.88;0.90;;;9.20;99.90;;;;;;5055942;28;20119;-74
2023/04/24 12:25:20;;;;;;;2.83;0.68;;;9.20;99.90;;;;;;5056693;28;20542;-72
2023/04/24 12:27:52;;;;;;;8.48;1.30;;;9.20;99.90;;;;;;5055644;28;20049;-74
2023/04/24 12:30:18;;;;;;;8.02;1.17;;;9.30;99.90;;;;;;5056859;28;20095;-73
2023/04/24 12:32:47;;;;;;;8.65;1.38;;;9.50;99.90;;;;;;5057467;28;20076;-73
2023/04/24 12:35:13;;;;;;;4.97;0.80;;;9.50;99.90;;;;;;5056753;28;20049;-73
2023/04/24 12:37:42;;;;;;;7.93;1.10;;;9.40;99.90;;;;;;5056041;28;20037;-72
2023/04/24 12:40:12;;;;;;;8.90;1.15;;;9.30;99.90;;;;;;5056649;28;20049;-72
2023/04/24 12:42:49;;;;;;;2.28;0.50;;;9.20;99.90;;;;;;5056032;28;20044;-73
2023/04/24 12:45:16;;;;;;;;;;;8.90;99.90;;;;;;5056993;28;20132;-72
2023/04/24 12:47:43;;;;;;;6.25;1.00;;;8.80;99.90;;;;;;5056222;28;19920;-72
2023/04/24 12:50:14;;;;;;;3.47;0.47;;;8.80;99.90;;;;;;5057241;28;20049;-72